createdAt,value
2019-05-25T00:00:52.733Z,12.23
2019-05-25T00:03:16.245Z,12.31
2019-05-25T00:05:39.847Z,12.36
2019-05-25T00:08:03.369Z,12.30
2019-05-25T00:10:26.910Z,12.39
2019-05-25T00:12:50.407Z,12.41
2019-05-25T00:15:14.487Z,12.45
2019-05-25T00:17:38.233Z,12.52
2019-05-25T00:20:03.345Z,12.49
2019-05-25T00:22:26.843Z,12.36
2019-05-25T00:24:50.392Z,12.35
2019-05-25T00:27:13.918Z,12.36
2019-05-25T00:29:37.425Z,12.36
2019-05-25T00:32:00.932Z,12.25
2019-05-25T00:34:24.728Z,11.99
2019-05-25T00:36:48.235Z,11.81
2019-05-25T00:39:11.746Z,11.70
2019-05-25T00:41:35.273Z,11.64
2019-05-25T00:43:58.772Z,11.55
2019-05-25T00:46:22.372Z,11.57
2019-05-25T00:48:45.881Z,11.61
2019-05-25T00:51:09.414Z,11.62
2019-05-25T00:53:32.933Z,11.65
2019-05-25T00:55:56.499Z,11.60
2019-05-25T00:58:20.066Z,11.61
2019-05-25T01:00:43.882Z,11.61
2019-05-25T01:03:07.394Z,11.71
2019-05-25T01:05:31.795Z,11.86
2019-05-25T01:07:55.774Z,12.05
2019-05-25T01:10:19.449Z,12.19
2019-05-25T01:12:42.945Z,12.20
2019-05-25T01:15:09.224Z,11.91
2019-05-25T01:17:32.748Z,11.78
2019-05-25T01:19:56.291Z,11.64
2019-05-25T01:22:19.792Z,11.63
2019-05-25T01:24:44.886Z,11.61
2019-05-25T01:27:08.707Z,11.63
2019-05-25T01:29:32.229Z,11.68
2019-05-25T01:31:55.767Z,11.69
2019-05-25T01:34:19.264Z,11.78
2019-05-25T01:36:42.821Z,11.89
2019-05-25T01:39:07.374Z,11.76
2019-05-25T01:41:30.907Z,11.38
2019-05-25T01:43:54.422Z,11.33
2019-05-25T01:46:17.964Z,11.41
2019-05-25T01:48:41.470Z,11.58
2019-05-25T01:51:05.073Z,11.63
2019-05-25T01:53:28.586Z,11.71
2019-05-25T01:55:52.122Z,11.80
2019-05-25T01:58:15.622Z,11.88
2019-05-25T02:00:39.183Z,11.81
2019-05-25T02:03:02.758Z,11.82
2019-05-25T02:05:26.273Z,11.76
2019-05-25T02:07:49.835Z,11.74
2019-05-25T02:10:13.489Z,11.83
2019-05-25T02:12:37.122Z,11.99
2019-05-25T02:15:00.643Z,12.05
2019-05-25T02:17:24.187Z,11.89
2019-05-25T02:19:47.733Z,11.76
2019-05-25T02:22:11.240Z,11.58
2019-05-25T02:24:34.750Z,11.40
2019-05-25T02:26:58.286Z,11.15
2019-05-25T02:29:21.791Z,10.95
2019-05-25T02:31:45.331Z,10.74
2019-05-25T02:34:08.859Z,10.69
2019-05-25T02:36:32.414Z,10.64
2019-05-25T02:38:55.924Z,10.74
2019-05-25T02:41:19.449Z,10.88
2019-05-25T02:43:42.954Z,11.02
2019-05-25T02:46:06.485Z,11.07
2019-05-25T02:48:29.987Z,11.04
2019-05-25T02:50:53.491Z,11.15
2019-05-25T02:53:18.107Z,11.26
2019-05-25T02:55:41.616Z,11.26
2019-05-25T02:58:05.155Z,11.12
2019-05-25T03:00:33.917Z,10.96
2019-05-25T03:02:57.705Z,10.74
2019-05-25T03:05:21.292Z,10.82
2019-05-25T03:07:45.876Z,10.87
2019-05-25T03:10:09.465Z,11.00
2019-05-25T03:12:33.340Z,10.79
2019-05-25T03:15:16.459Z,10.67
2019-05-25T03:17:40.011Z,10.75
2019-05-25T03:20:05.221Z,10.86
2019-05-25T03:22:28.736Z,10.66
2019-05-25T03:24:52.262Z,10.48
2019-05-25T03:27:15.844Z,10.49
2019-05-25T03:29:39.379Z,10.52
2019-05-25T03:32:02.907Z,10.50
2019-05-25T03:34:26.469Z,10.64
2019-05-25T03:36:50.111Z,10.78
2019-05-25T03:39:13.643Z,10.84
2019-05-25T03:41:37.224Z,10.97
2019-05-25T03:44:00.762Z,10.79
2019-05-25T03:46:24.276Z,10.68
2019-05-25T03:48:47.906Z,10.60
2019-05-25T03:51:11.483Z,10.49
2019-05-25T03:53:35.154Z,10.71
2019-05-25T03:56:06.035Z,10.94
2019-05-25T03:58:23.946Z,11.02
2019-05-25T04:00:47.537Z,10.91
2019-05-25T04:03:11.140Z,10.91
2019-05-25T04:05:34.813Z,11.14
2019-05-25T04:07:58.500Z,11.36
2019-05-25T04:10:22.054Z,11.36
2019-05-25T04:12:45.722Z,11.24
2019-05-25T04:15:09.381Z,11.51
2019-05-25T04:17:32.931Z,11.74
2019-05-25T04:19:56.455Z,11.88
2019-05-25T04:22:20.091Z,11.92
2019-05-25T04:24:43.674Z,11.97
2019-05-25T04:27:07.226Z,12.12
2019-05-25T04:29:30.863Z,12.06
2019-05-25T04:31:54.385Z,12.16
2019-05-25T04:34:17.930Z,12.28
2019-05-25T04:36:41.455Z,12.37
2019-05-25T04:39:07.656Z,12.47
2019-05-25T04:41:31.176Z,12.70
2019-05-25T04:43:54.718Z,12.82
2019-05-25T04:46:21.463Z,12.96
2019-05-25T04:48:43.513Z,13.04
2019-05-25T04:51:07.120Z,13.05
2019-05-25T04:53:30.667Z,13.16
2019-05-25T04:55:54.180Z,13.23
2019-05-25T04:58:17.731Z,13.02
2019-05-25T05:00:41.244Z,13.04
2019-05-25T05:03:04.876Z,13.15
2019-05-25T05:05:28.383Z,13.29
2019-05-25T05:07:52.005Z,13.34
2019-05-25T05:10:15.662Z,13.39
2019-05-25T05:12:39.255Z,13.54
2019-05-25T05:15:02.847Z,13.68
2019-05-25T05:17:26.363Z,13.83
2019-05-25T05:19:49.966Z,14.15
2019-05-25T05:22:13.523Z,14.33
2019-05-25T05:24:37.065Z,14.51
2019-05-25T05:27:00.585Z,14.61
2019-05-25T05:29:24.200Z,14.72
2019-05-25T05:31:47.772Z,14.77
2019-05-25T05:34:11.439Z,15.01
2019-05-25T05:36:36.439Z,15.12
2019-05-25T05:39:00.864Z,15.00
2019-05-25T05:41:25.423Z,15.15
2019-05-25T05:43:52.516Z,14.95
2019-05-25T05:46:18.016Z,15.04
2019-05-25T05:48:45.341Z,15.12
2019-05-25T05:51:10.573Z,14.99
2019-05-25T05:53:36.425Z,15.28
2019-05-25T05:55:59.943Z,15.50
2019-05-25T05:58:23.474Z,15.48
2019-05-25T06:00:47.796Z,15.55
2019-05-25T06:03:11.325Z,15.72
2019-05-25T06:05:34.867Z,15.83
2019-05-25T06:07:58.392Z,15.84
2019-05-25T06:10:22.825Z,15.96
2019-05-25T06:12:46.336Z,16.27
2019-05-25T06:15:10.026Z,16.44
2019-05-25T06:17:33.549Z,16.59
2019-05-25T06:19:57.091Z,16.43
2019-05-25T06:22:20.787Z,16.44
2019-05-25T06:24:44.358Z,16.33
2019-05-25T06:27:07.934Z,15.91
2019-05-25T06:29:31.499Z,15.83
2019-05-25T06:31:55.034Z,16.08
2019-05-25T06:34:18.576Z,16.70
2019-05-25T06:36:42.093Z,17.20
2019-05-25T06:39:07.817Z,17.34
2019-05-25T06:41:31.361Z,17.12
2019-05-25T06:43:54.919Z,16.74
2019-05-25T06:46:18.483Z,16.93
2019-05-25T06:48:42.017Z,17.03
2019-05-25T06:51:05.541Z,17.00
2019-05-25T06:53:29.097Z,17.11
2019-05-25T06:55:52.682Z,17.25
2019-05-25T06:58:16.284Z,17.57
2019-05-25T07:00:39.845Z,17.87
2019-05-25T07:03:03.345Z,18.25
2019-05-25T07:05:26.920Z,18.26
2019-05-25T07:07:53.852Z,18.41
2019-05-25T07:10:16.086Z,18.51
2019-05-25T07:12:39.633Z,18.61
2019-05-25T07:15:03.748Z,18.39
2019-05-25T07:17:27.291Z,18.27
2019-05-25T07:19:50.847Z,17.99
2019-05-25T07:22:14.357Z,18.16
2019-05-25T07:24:37.885Z,18.31
2019-05-25T07:27:01.495Z,17.93
2019-05-25T07:29:25.054Z,17.99
2019-05-25T07:31:48.767Z,17.91
2019-05-25T07:34:12.292Z,18.05
2019-05-25T07:36:35.834Z,18.23
2019-05-25T07:38:59.382Z,18.11
2019-05-25T07:41:22.936Z,18.41
2019-05-25T07:43:46.532Z,18.12
2019-05-25T07:46:10.096Z,18.54
2019-05-25T07:48:33.656Z,19.27
2019-05-25T07:50:57.211Z,19.90
2019-05-25T07:53:20.736Z,20.10
2019-05-25T07:55:44.303Z,19.97
2019-05-25T07:58:17.474Z,19.65
2019-05-25T08:00:33.110Z,19.66
2019-05-25T08:02:56.653Z,19.62
2019-05-25T08:05:20.261Z,19.66
2019-05-25T08:07:43.847Z,19.66
2019-05-25T08:10:09.017Z,19.96
2019-05-25T08:12:32.589Z,20.31
2019-05-25T08:14:56.157Z,20.93
2019-05-25T08:17:19.775Z,21.28
2019-05-25T08:19:43.283Z,21.78
2019-05-25T08:22:06.825Z,21.63
2019-05-25T08:24:34.791Z,21.15
2019-05-25T08:26:58.434Z,20.48
2019-05-25T08:29:21.961Z,20.53
2019-05-25T08:31:45.512Z,20.41
2019-05-25T08:34:09.049Z,20.50
2019-05-25T08:36:32.658Z,20.64
2019-05-25T08:38:56.220Z,20.70
2019-05-25T08:41:19.848Z,20.51
2019-05-25T08:43:43.374Z,20.17
2019-05-25T08:46:06.921Z,19.78
2019-05-25T08:48:30.467Z,19.64
2019-05-25T08:50:53.995Z,19.62
2019-05-25T08:53:21.383Z,19.48
2019-05-25T08:55:42.820Z,19.41
2019-05-25T08:58:06.431Z,19.52
2019-05-25T09:00:29.997Z,19.69
2019-05-25T09:02:53.538Z,19.60
2019-05-25T09:05:17.249Z,19.84
2019-05-25T09:07:40.907Z,19.56
2019-05-25T09:10:09.051Z,19.47
2019-05-25T09:12:32.614Z,19.41
2019-05-25T09:14:56.146Z,19.62
2019-05-25T09:17:19.722Z,19.33
2019-05-25T09:19:43.299Z,19.41
2019-05-25T09:22:06.874Z,19.62
2019-05-25T09:24:30.395Z,19.65
2019-05-25T09:26:53.945Z,19.86
2019-05-25T09:29:17.461Z,19.63
2019-05-25T09:31:41.030Z,19.66
2019-05-25T09:34:04.615Z,20.01
2019-05-25T09:36:28.146Z,19.93
2019-05-25T09:38:51.777Z,20.34
2019-05-25T09:41:15.349Z,21.04
2019-05-25T09:43:38.908Z,21.66
2019-05-25T09:46:03.326Z,21.92
2019-05-25T09:48:27.072Z,21.88
2019-05-25T09:50:50.597Z,21.95
2019-05-25T09:53:14.146Z,22.16
2019-05-25T09:55:37.673Z,21.90
2019-05-25T09:58:01.227Z,22.06
2019-05-25T10:00:25.036Z,22.33
2019-05-25T10:02:48.766Z,21.96
2019-05-25T10:05:12.973Z,22.07
2019-05-25T10:07:36.508Z,22.26
2019-05-25T10:10:00.023Z,22.60
2019-05-25T10:12:23.587Z,22.52
2019-05-25T10:14:47.146Z,21.84
2019-05-25T10:17:10.712Z,21.71
2019-05-25T10:19:34.266Z,22.05
2019-05-25T10:21:59.541Z,22.65
2019-05-25T10:24:23.150Z,22.94
2019-05-25T10:26:46.836Z,23.02
2019-05-25T10:29:10.380Z,23.03
2019-05-25T10:31:33.950Z,23.10
2019-05-25T10:33:57.532Z,23.61
2019-05-25T10:36:21.073Z,23.32
2019-05-25T10:38:44.660Z,23.18
2019-05-25T10:41:08.203Z,23.32
2019-05-25T10:43:31.790Z,23.66
2019-05-25T10:45:55.335Z,23.42
2019-05-25T10:48:18.881Z,22.94
2019-05-25T10:50:42.512Z,23.32
2019-05-25T10:53:06.064Z,23.86
2019-05-25T10:55:29.590Z,23.49
2019-05-25T10:57:53.131Z,23.55
2019-05-25T11:00:18.699Z,23.68
2019-05-25T11:02:42.318Z,23.70
2019-05-25T11:05:07.512Z,23.87
2019-05-25T11:07:31.040Z,24.61
2019-05-25T11:09:54.597Z,25.15
2019-05-25T11:12:18.155Z,24.61
2019-05-25T11:14:41.736Z,24.96
2019-05-25T11:17:05.348Z,24.86
2019-05-25T11:19:28.919Z,25.02
2019-05-25T11:21:52.472Z,24.99
2019-05-25T11:24:16.038Z,25.01
2019-05-25T11:26:39.582Z,25.17
2019-05-25T11:29:03.131Z,24.45
2019-05-25T11:31:26.686Z,24.31
2019-05-25T11:33:50.260Z,24.57
2019-05-25T11:36:13.822Z,24.43
2019-05-25T11:38:37.329Z,24.95
2019-05-25T11:41:00.885Z,24.61
2019-05-25T11:43:24.441Z,25.30
2019-05-25T11:45:47.994Z,25.92
2019-05-25T11:48:11.512Z,26.63
2019-05-25T11:50:35.058Z,26.25
2019-05-25T11:52:58.578Z,26.07
2019-05-25T11:55:23.659Z,25.28
2019-05-25T11:57:47.208Z,24.80
2019-05-25T12:00:25.072Z,24.65
2019-05-25T12:02:41.742Z,23.64
2019-05-25T12:05:08.912Z,22.15
2019-05-25T12:07:32.435Z,21.26
2019-05-25T12:09:56.046Z,20.54
2019-05-25T12:12:19.637Z,19.99
2019-05-25T12:14:43.208Z,18.56
2019-05-25T12:17:06.744Z,17.77
2019-05-25T12:19:30.572Z,17.42
2019-05-25T12:21:55.685Z,16.92
2019-05-25T12:24:20.673Z,17.28
2019-05-25T12:26:44.309Z,17.59
2019-05-25T12:29:07.841Z,18.41
2019-05-25T12:31:31.405Z,19.24
2019-05-25T12:33:54.943Z,20.91
2019-05-25T12:36:18.510Z,21.94
2019-05-25T12:38:42.052Z,21.35
2019-05-25T12:41:05.603Z,21.64
2019-05-25T12:43:29.120Z,20.89
2019-05-25T12:45:52.664Z,20.79
2019-05-25T12:48:16.204Z,21.86
2019-05-25T12:50:39.771Z,23.10
2019-05-25T12:53:03.326Z,23.28
2019-05-25T12:55:26.873Z,23.63
2019-05-25T12:57:51.527Z,24.49
2019-05-25T13:00:16.811Z,25.54
2019-05-25T13:02:40.600Z,26.23
2019-05-25T13:05:04.989Z,26.45
2019-05-25T13:07:28.530Z,27.36
2019-05-25T13:09:52.073Z,27.27
2019-05-25T13:12:15.617Z,27.33
2019-05-25T13:14:39.135Z,26.69
2019-05-25T13:17:02.691Z,26.49
2019-05-25T13:19:26.248Z,27.81
2019-05-25T13:21:49.862Z,26.12
2019-05-25T13:24:13.415Z,25.55
2019-05-25T13:26:36.969Z,23.62
2019-05-25T13:29:00.512Z,23.03
2019-05-25T13:31:24.709Z,22.40
2019-05-25T13:33:48.241Z,22.07
2019-05-25T13:36:11.779Z,22.54
2019-05-25T13:38:35.295Z,21.46
2019-05-25T13:40:58.938Z,21.34
2019-05-25T13:43:22.451Z,21.40
2019-05-25T13:48:09.947Z,23.74
2019-05-25T13:50:33.529Z,24.73
2019-05-25T13:52:57.088Z,23.71
2019-05-25T13:55:20.705Z,24.39
2019-05-25T13:57:44.225Z,24.24
2019-05-25T14:00:09.363Z,23.48
2019-05-25T14:02:32.914Z,23.10
2019-05-25T14:04:56.521Z,23.02
2019-05-25T14:07:20.087Z,23.78
2019-05-25T14:09:43.600Z,24.04
2019-05-25T14:12:07.158Z,22.94
2019-05-25T14:14:30.707Z,22.13
2019-05-25T14:16:54.245Z,22.23
2019-05-25T14:19:17.770Z,22.19
2019-05-25T14:21:41.320Z,22.76
2019-05-25T14:24:04.930Z,23.84
2019-05-25T14:26:28.463Z,24.95
2019-05-25T14:28:51.987Z,26.36
2019-05-25T14:31:15.518Z,27.15
2019-05-25T14:33:39.029Z,29.43
2019-05-25T14:36:02.571Z,30.50
2019-05-25T14:38:26.095Z,31.61
2019-05-25T14:40:49.638Z,31.95
2019-05-25T14:43:13.186Z,28.77
2019-05-25T14:45:36.705Z,26.33
2019-05-25T14:48:00.252Z,24.28
2019-05-25T14:50:23.855Z,24.47
2019-05-25T14:52:47.466Z,24.91
2019-05-25T14:55:11.252Z,24.44
2019-05-25T14:57:34.789Z,24.46
2019-05-25T14:59:58.308Z,24.27
2019-05-25T15:02:21.845Z,23.83
2019-05-25T15:04:45.628Z,23.93
2019-05-25T15:07:09.175Z,23.99
2019-05-25T15:09:32.717Z,23.85
2019-05-25T15:11:56.260Z,23.71
2019-05-25T15:14:19.795Z,23.52
2019-05-25T15:16:43.385Z,23.67
2019-05-25T15:19:06.887Z,23.93
2019-05-25T15:21:30.469Z,23.69
2019-05-25T15:23:53.953Z,23.80
2019-05-25T15:26:17.457Z,23.86
2019-05-25T15:28:40.996Z,23.98
2019-05-25T15:31:04.604Z,23.60
2019-05-25T15:33:28.139Z,23.64
2019-05-25T15:35:51.677Z,23.65
2019-05-25T15:38:15.224Z,23.13
2019-05-25T15:40:39.218Z,22.94
2019-05-25T15:43:02.779Z,22.88
2019-05-25T15:45:26.366Z,22.17
2019-05-25T15:47:49.981Z,22.20
2019-05-25T15:50:14.167Z,21.81
2019-05-25T15:52:37.726Z,22.02
2019-05-25T15:55:01.284Z,22.04
2019-05-25T15:57:24.941Z,21.96
2019-05-25T15:59:48.499Z,21.74
2019-05-25T16:02:12.296Z,21.59
2019-05-25T16:04:35.886Z,21.50
2019-05-25T16:06:59.400Z,21.45
2019-05-25T16:09:23.001Z,21.47
2019-05-25T16:11:46.613Z,21.58
2019-05-25T16:14:10.171Z,21.79
2019-05-25T16:16:33.979Z,21.81
2019-05-25T16:18:57.512Z,21.11
2019-05-25T16:21:21.035Z,21.23
2019-05-25T16:23:44.589Z,21.50
2019-05-25T16:26:08.132Z,21.38
2019-05-25T16:30:54.236Z,21.21
2019-05-25T16:33:17.805Z,21.11
2019-05-25T16:35:41.339Z,20.70
2019-05-25T16:38:05.144Z,20.38
2019-05-25T16:40:28.844Z,20.27
2019-05-25T16:42:52.501Z,20.42
2019-05-25T16:45:16.489Z,20.03
2019-05-25T16:47:40.046Z,19.98
2019-05-25T16:50:05.142Z,19.95
2019-05-25T16:52:28.717Z,19.67
2019-05-25T16:54:52.279Z,20.15
2019-05-25T16:57:15.843Z,21.92
2019-05-25T16:59:39.391Z,23.46
2019-05-25T17:02:02.944Z,23.74
2019-05-25T17:04:26.518Z,22.56
2019-05-25T17:06:50.071Z,23.68
2019-05-25T17:09:13.618Z,24.23
2019-05-25T17:11:37.133Z,23.41
2019-05-25T17:14:00.697Z,21.65
2019-05-25T17:16:24.230Z,21.31
2019-05-25T17:18:47.781Z,20.72
2019-05-25T17:21:11.292Z,20.63
2019-05-25T17:23:34.870Z,20.48
2019-05-25T17:25:58.386Z,20.47
2019-05-25T17:28:21.942Z,20.22
2019-05-25T17:30:46.805Z,20.60
2019-05-25T17:33:10.722Z,20.78
2019-05-25T17:35:34.308Z,20.51
2019-05-25T17:37:57.852Z,19.99
2019-05-25T17:40:21.398Z,19.94
2019-05-25T17:42:44.914Z,19.92
2019-05-25T17:45:08.996Z,19.36
2019-05-25T17:47:32.764Z,19.21
2019-05-25T17:49:58.313Z,19.15
2019-05-25T17:52:23.038Z,19.06
2019-05-25T17:54:47.220Z,18.92
2019-05-25T17:57:10.897Z,18.75
2019-05-25T17:59:34.494Z,18.92
2019-05-25T18:01:58.398Z,18.91
2019-05-25T18:04:22.109Z,18.98
2019-05-25T18:06:45.724Z,18.99
2019-05-25T18:09:09.448Z,18.90
2019-05-25T18:11:33.067Z,18.88
2019-05-25T18:13:56.745Z,19.00
2019-05-25T18:16:20.675Z,18.98
2019-05-25T18:18:44.629Z,18.68
2019-05-25T18:21:08.456Z,18.67
2019-05-25T18:23:32.262Z,18.75
2019-05-25T18:25:56.265Z,18.83
2019-05-25T18:28:19.846Z,18.95
2019-05-25T18:30:43.564Z,19.00
2019-05-25T18:33:07.521Z,19.05
2019-05-25T18:35:31.522Z,19.12
2019-05-25T18:37:55.176Z,19.10
2019-05-25T18:40:19.266Z,18.96
2019-05-25T18:42:43.163Z,18.90
2019-05-25T18:45:08.485Z,18.90
2019-05-25T18:47:32.333Z,18.75
2019-05-25T18:49:56.321Z,18.72
2019-05-25T18:52:20.259Z,18.73
2019-05-25T18:54:44.161Z,18.74
2019-05-25T18:57:09.536Z,18.67
2019-05-25T18:59:33.316Z,18.49
2019-05-25T19:01:56.979Z,18.44
2019-05-25T19:04:20.752Z,18.44
2019-05-25T19:06:44.888Z,18.44
2019-05-25T19:09:10.720Z,18.41
2019-05-25T19:11:35.904Z,18.39
2019-05-25T19:14:00.135Z,18.33
2019-05-25T19:16:23.719Z,18.23
2019-05-25T19:18:47.245Z,18.07
2019-05-25T19:21:10.800Z,18.02
2019-05-25T19:23:34.461Z,17.93
2019-05-25T19:25:58.275Z,17.79
2019-05-25T19:28:22.847Z,17.66
2019-05-25T19:30:46.430Z,17.44
2019-05-25T19:33:10.150Z,17.43
2019-05-25T19:35:34.715Z,17.36
2019-05-25T19:37:58.323Z,17.31
2019-05-25T19:40:22.186Z,17.23
2019-05-25T19:42:49.550Z,17.17
2019-05-25T19:45:11.557Z,17.07
2019-05-25T19:47:35.192Z,16.99
2019-05-25T19:49:58.754Z,16.92
2019-05-25T19:52:22.364Z,16.90
2019-05-25T19:54:46.138Z,16.67
2019-05-25T19:57:09.867Z,16.56
2019-05-25T19:59:33.734Z,16.63
2019-05-25T20:01:57.607Z,16.62
2019-05-25T20:04:21.655Z,16.55
2019-05-25T20:06:45.268Z,16.54
2019-05-25T20:09:08.867Z,16.49
2019-05-25T20:11:32.495Z,16.44
2019-05-25T20:13:57.126Z,16.44
2019-05-25T20:16:24.760Z,16.34
2019-05-25T20:18:46.234Z,16.40
2019-05-25T20:21:09.807Z,16.40
2019-05-25T20:23:33.560Z,16.38
2019-05-25T20:25:57.213Z,16.41
2019-05-25T20:28:20.830Z,16.40
2019-05-25T20:30:44.585Z,16.34
2019-05-25T20:33:08.379Z,16.32
2019-05-25T20:35:33.653Z,16.35
2019-05-25T20:37:57.357Z,16.37
2019-05-25T20:40:21.781Z,16.35
2019-05-25T20:42:45.494Z,16.36
2019-05-25T20:45:09.758Z,16.35
2019-05-25T20:47:33.355Z,16.26
2019-05-25T20:49:57.078Z,16.28
2019-05-25T20:52:20.710Z,16.21
2019-05-25T20:54:44.295Z,16.19
2019-05-25T20:57:07.897Z,15.99
2019-05-25T20:59:31.420Z,15.80
2019-05-25T21:01:55.289Z,15.72
2019-05-25T21:04:19.132Z,15.64
2019-05-25T21:06:42.983Z,15.71
2019-05-25T21:09:07.824Z,15.57
2019-05-25T21:11:31.414Z,15.48
2019-05-25T21:13:55.173Z,15.38
2019-05-25T21:16:18.803Z,15.40
2019-05-25T21:18:42.704Z,15.28
2019-05-25T21:21:06.362Z,15.23
2019-05-25T21:23:30.166Z,15.22
2019-05-25T21:25:53.865Z,15.27
2019-05-25T21:28:17.606Z,15.35
2019-05-25T21:30:41.495Z,15.52
2019-05-25T21:33:05.232Z,15.44
2019-05-25T21:35:28.844Z,15.49
2019-05-25T21:37:52.405Z,15.56
2019-05-25T21:40:16.333Z,15.64
2019-05-25T21:42:39.933Z,15.70
2019-05-25T21:45:03.975Z,15.73
2019-05-25T21:47:27.591Z,15.61
2019-05-25T21:49:51.219Z,15.63
2019-05-25T21:52:14.826Z,15.70
2019-05-25T21:54:38.495Z,15.75
2019-05-25T21:57:02.116Z,15.56
2019-05-25T21:59:25.712Z,15.56
2019-05-25T22:01:49.428Z,15.47
2019-05-25T22:04:13.044Z,15.47
2019-05-25T22:06:37.687Z,15.46
2019-05-25T22:09:01.319Z,15.48
2019-05-25T22:11:24.963Z,15.37
2019-05-25T22:13:48.798Z,15.35
2019-05-25T22:16:12.624Z,15.33
2019-05-25T22:18:36.447Z,15.36
2019-05-25T22:20:59.966Z,15.39
2019-05-25T22:23:23.785Z,15.36
2019-05-25T22:25:47.441Z,15.38
2019-05-25T22:28:11.150Z,15.15
2019-05-25T22:30:34.734Z,15.07
2019-05-25T22:32:58.673Z,14.80
2019-05-25T22:35:22.386Z,14.56
2019-05-25T22:37:46.192Z,14.70
2019-05-25T22:40:10.277Z,14.62
2019-05-25T22:42:33.797Z,14.46
2019-05-25T22:44:57.343Z,14.53
2019-05-25T22:47:20.880Z,14.53
2019-05-25T22:49:44.543Z,14.54
2019-05-25T22:52:08.060Z,14.51
2019-05-25T22:54:31.711Z,14.57
2019-05-25T22:56:55.238Z,14.49
2019-05-25T22:59:18.790Z,14.30
2019-05-25T23:01:42.380Z,14.06
2019-05-25T23:04:05.991Z,14.09
2019-05-25T23:06:29.501Z,14.00
2019-05-25T23:08:53.050Z,14.01
2019-05-25T23:11:16.575Z,14.01
2019-05-25T23:13:40.233Z,14.05
2019-05-25T23:16:03.765Z,14.10
2019-05-25T23:18:27.290Z,14.16
2019-05-25T23:20:50.928Z,14.04
2019-05-25T23:23:14.462Z,14.03
2019-05-25T23:25:37.991Z,13.85
2019-05-25T23:28:01.592Z,13.74
2019-05-25T23:30:25.306Z,13.57
2019-05-25T23:32:48.829Z,13.54
2019-05-25T23:35:12.352Z,13.52
2019-05-25T23:37:36.023Z,13.53
2019-05-25T23:39:59.653Z,13.66
2019-05-25T23:42:23.192Z,13.78
2019-05-25T23:44:46.779Z,13.88
2019-05-25T23:47:10.334Z,13.67
2019-05-25T23:49:33.870Z,13.74
2019-05-25T23:51:57.393Z,13.79
2019-05-25T23:54:21.019Z,13.88
2019-05-25T23:56:44.617Z,13.94
2019-05-25T23:59:08.146Z,13.98
